Hovedside
METAR-TAF:

METAR-TAF

Lufthavner :

Åbo lufthavn

Åbo, Finland

breddegrad: 60-31N, lengdegrad: 022-16E, høyde over havet: 49 m

Gjeldene værobservasjon

Denne rapporten ble laget for 16 minutter siden, klokken 09:50 UTC
Vind 9 kt fra Vest-sørvest, skiftende mellom Sør-sørvest og Vest
Temperatur 18°C
Luftfuktighet 56%
Trykk 1005 hPa
Sikt 10 km eller mer
Få skyer i en høyde av 3600 ft

METAR: EFTU 190950Z AUTO 24009KT 200V270 9999 FEW036 18/09 Q1005

Tid: 13:06 (10:06 UTC)

Varsel

Denne rapporten ble laget for 1 time og 34 minutter siden, klokken 08:32 UTC
Varsel gyldig fra 19. klokken 09 UTC til 20. klokken 09 UTC
Vind 9 kt fra Sørvest
Sikt 10 km eller mer
Få skyer i en høyde av 3000 ft
Blir
fra 19. klokken 15 UTC til 19. klokken 17 UTC
Vind 10 kt fra Vest-nordvest

TAF: EFTU 190832Z 1909/2009 23009KT 9999 FEW030 BECMG 1915/1917 30010KT

Værobservasjoner og værvarsel for over 4000 flyplasser (METAR- og TAF-rapporter).

Tilgjengelige stasjoner er representert av de røde og gule prikkene på kartet.

Hold musepekeren over prikken for å se navnet på stasjonen.

Klikk så for å se værobservasjoner og -varsler.

For å forandre kartet kan du klikke på den grønne knappen med svart kryss for å zoome inn, på den grønne knappen med strek for å zoome ut, eller på de grønne pilene for å se tilstøtende kart.


METAR-TAF: